sensor_id;sensor_type;location;lat;lon;timestamp;P1;durP1;ratioP1;P2;durP2;ratioP2
1106;SDS011;540;49.448;8.612;2024-02-16T00:01:13;7.95;;;2.92;;
1106;SDS011;540;49.448;8.612;2024-02-16T00:03:41;6.97;;;3.40;;
1106;SDS011;540;49.448;8.612;2024-02-16T00:06:10;5.60;;;3.20;;
1106;SDS011;540;49.448;8.612;2024-02-16T00:08:39;5.82;;;3.03;;
1106;SDS011;540;49.448;8.612;2024-02-16T00:11:07;5.63;;;2.47;;
1106;SDS011;540;49.448;8.612;2024-02-16T00:13:36;4.55;;;2.58;;
1106;SDS011;540;49.448;8.612;2024-02-16T00:16:04;5.35;;;2.03;;
1106;SDS011;540;49.448;8.612;2024-02-16T00:18:32;3.92;;;2.35;;
1106;SDS011;540;49.448;8.612;2024-02-16T00:21:00;6.20;;;2.58;;
1106;SDS011;540;49.448;8.612;2024-02-16T00:23:30;5.82;;;3.15;;
1106;SDS011;540;49.448;8.612;2024-02-16T00:26:01;8.32;;;4.10;;
1106;SDS011;540;49.448;8.612;2024-02-16T00:28:33;8.77;;;4.00;;
1106;SDS011;540;49.448;8.612;2024-02-16T00:31:01;5.25;;;3.50;;
1106;SDS011;540;49.448;8.612;2024-02-16T00:33:28;4.93;;;2.47;;
1106;SDS011;540;49.448;8.612;2024-02-16T00:35:56;4.60;;;2.35;;
1106;SDS011;540;49.448;8.612;2024-02-16T00:38:24;5.82;;;2.55;;
1106;SDS011;540;49.448;8.612;2024-02-16T00:40:53;3.55;;;2.38;;
1106;SDS011;540;49.448;8.612;2024-02-16T00:43:21;5.07;;;2.35;;
1106;SDS011;540;49.448;8.612;2024-02-16T00:45:49;5.45;;;2.20;;
1106;SDS011;540;49.448;8.612;2024-02-16T00:48:17;4.43;;;1.75;;
1106;SDS011;540;49.448;8.612;2024-02-16T00:50:45;3.90;;;2.33;;
1106;SDS011;540;49.448;8.612;2024-02-16T00:53:14;4.80;;;2.40;;
1106;SDS011;540;49.448;8.612;2024-02-16T00:55:42;4.88;;;2.38;;
1106;SDS011;540;49.448;8.612;2024-02-16T00:58:12;3.85;;;2.17;;
1106;SDS011;540;49.448;8.612;2024-02-16T01:00:40;5.53;;;2.05;;
1106;SDS011;540;49.448;8.612;2024-02-16T01:03:10;3.78;;;2.20;;
1106;SDS011;540;49.448;8.612;2024-02-16T01:05:38;4.40;;;2.35;;
1106;SDS011;540;49.448;8.612;2024-02-16T01:08:07;5.45;;;2.55;;
1106;SDS011;540;49.448;8.612;2024-02-16T01:10:35;5.63;;;2.42;;
1106;SDS011;540;49.448;8.612;2024-02-16T01:13:03;4.00;;;2.30;;
1106;SDS011;540;49.448;8.612;2024-02-16T01:15:32;3.95;;;2.55;;
1106;SDS011;540;49.448;8.612;2024-02-16T01:18:00;6.55;;;3.28;;
1106;SDS011;540;49.448;8.612;2024-02-16T01:20:28;5.00;;;3.17;;
1106;SDS011;540;49.448;8.612;2024-02-16T01:22:57;7.25;;;3.35;;
1106;SDS011;540;49.448;8.612;2024-02-16T01:25:25;5.63;;;2.92;;
1106;SDS011;540;49.448;8.612;2024-02-16T01:27:53;5.03;;;3.28;;
1106;SDS011;540;49.448;8.612;2024-02-16T01:30:21;7.25;;;3.13;;
1106;SDS011;540;49.448;8.612;2024-02-16T01:32:50;5.70;;;3.20;;
1106;SDS011;540;49.448;8.612;2024-02-16T01:35:18;5.22;;;3.47;;
1106;SDS011;540;49.448;8.612;2024-02-16T01:37:47;7.55;;;3.92;;
1106;SDS011;540;49.448;8.612;2024-02-16T01:40:15;6.55;;;3.33;;
1106;SDS011;540;49.448;8.612;2024-02-16T01:42:43;5.15;;;3.72;;
1106;SDS011;540;49.448;8.612;2024-02-16T01:45:11;8.13;;;3.85;;
1106;SDS011;540;49.448;8.612;2024-02-16T01:47:40;6.63;;;3.38;;
1106;SDS011;540;49.448;8.612;2024-02-16T01:50:11;5.43;;;3.40;;
1106;SDS011;540;49.448;8.612;2024-02-16T01:52:39;6.57;;;3.42;;
1106;SDS011;540;49.448;8.612;2024-02-16T01:55:07;6.85;;;3.67;;
1106;SDS011;540;49.448;8.612;2024-02-16T01:57:36;7.72;;;3.35;;
1106;SDS011;540;49.448;8.612;2024-02-16T02:00:06;6.68;;;3.08;;
1106;SDS011;540;49.448;8.612;2024-02-16T02:02:35;3.97;;;3.08;;
1106;SDS011;540;49.448;8.612;2024-02-16T02:05:03;6.80;;;3.40;;
1106;SDS011;540;49.448;8.612;2024-02-16T02:07:33;5.13;;;3.30;;
1106;SDS011;540;49.448;8.612;2024-02-16T02:10:01;6.53;;;3.30;;
1106;SDS011;540;49.448;8.612;2024-02-16T02:12:29;6.72;;;3.50;;
1106;SDS011;540;49.448;8.612;2024-02-16T02:14:57;4.20;;;3.08;;
1106;SDS011;540;49.448;8.612;2024-02-16T02:17:25;8.10;;;4.05;;
1106;SDS011;540;49.448;8.612;2024-02-16T02:19:53;5.53;;;3.20;;
1106;SDS011;540;49.448;8.612;2024-02-16T02:22:23;5.30;;;3.30;;
1106;SDS011;540;49.448;8.612;2024-02-16T02:24:53;6.53;;;3.42;;
1106;SDS011;540;49.448;8.612;2024-02-16T02:27:21;4.68;;;3.00;;
1106;SDS011;540;49.448;8.612;2024-02-16T02:29:49;4.53;;;2.78;;
1106;SDS011;540;49.448;8.612;2024-02-16T02:32:17;3.85;;;2.72;;
1106;SDS011;540;49.448;8.612;2024-02-16T02:34:45;5.78;;;2.85;;
1106;SDS011;540;49.448;8.612;2024-02-16T02:37:13;5.78;;;3.00;;
1106;SDS011;540;49.448;8.612;2024-02-16T02:39:42;4.97;;;2.28;;
1106;SDS011;540;49.448;8.612;2024-02-16T02:42:10;4.80;;;2.97;;
1106;SDS011;540;49.448;8.612;2024-02-16T02:44:38;3.95;;;3.17;;
1106;SDS011;540;49.448;8.612;2024-02-16T02:47:06;4.45;;;2.95;;
1106;SDS011;540;49.448;8.612;2024-02-16T02:49:34;4.70;;;3.20;;
1106;SDS011;540;49.448;8.612;2024-02-16T02:52:02;5.95;;;3.28;;
1106;SDS011;540;49.448;8.612;2024-02-16T02:54:32;5.07;;;3.13;;
1106;SDS011;540;49.448;8.612;2024-02-16T02:57:02;5.47;;;2.63;;
1106;SDS011;540;49.448;8.612;2024-02-16T02:59:30;4.97;;;2.83;;
1106;SDS011;540;49.448;8.612;2024-02-16T03:01:58;6.45;;;2.80;;
1106;SDS011;540;49.448;8.612;2024-02-16T03:04:26;6.68;;;3.00;;
1106;SDS011;540;49.448;8.612;2024-02-16T03:06:53;4.30;;;2.88;;
1106;SDS011;540;49.448;8.612;2024-02-16T03:09:21;4.32;;;2.50;;
1106;SDS011;540;49.448;8.612;2024-02-16T03:11:50;4.72;;;2.85;;
1106;SDS011;540;49.448;8.612;2024-02-16T03:14:19;5.70;;;2.60;;
1106;SDS011;540;49.448;8.612;2024-02-16T03:16:47;6.40;;;3.05;;
1106;SDS011;540;49.448;8.612;2024-02-16T03:19:14;4.75;;;2.78;;
1106;SDS011;540;49.448;8.612;2024-02-16T03:21:42;3.17;;;2.75;;
1106;SDS011;540;49.448;8.612;2024-02-16T03:24:10;6.53;;;2.75;;
1106;SDS011;540;49.448;8.612;2024-02-16T03:26:38;4.68;;;3.10;;
1106;SDS011;540;49.448;8.612;2024-02-16T03:29:06;4.72;;;2.60;;
1106;SDS011;540;49.448;8.612;2024-02-16T03:31:35;3.20;;;2.50;;
1106;SDS011;540;49.448;8.612;2024-02-16T03:34:03;5.00;;;2.80;;
1106;SDS011;540;49.448;8.612;2024-02-16T03:36:31;4.32;;;2.97;;
1106;SDS011;540;49.448;8.612;2024-02-16T03:39:00;3.95;;;2.45;;
1106;SDS011;540;49.448;8.612;2024-02-16T03:41:28;5.20;;;2.75;;
1106;SDS011;540;49.448;8.612;2024-02-16T03:43:56;3.22;;;2.50;;
1106;SDS011;540;49.448;8.612;2024-02-16T03:46:24;4.07;;;2.65;;
1106;SDS011;540;49.448;8.612;2024-02-16T03:48:53;4.75;;;3.10;;
1106;SDS011;540;49.448;8.612;2024-02-16T03:51:21;4.00;;;3.08;;
1106;SDS011;540;49.448;8.612;2024-02-16T03:53:49;5.82;;;3.13;;
1106;SDS011;540;49.448;8.612;2024-02-16T03:56:20;5.18;;;3.35;;
1106;SDS011;540;49.448;8.612;2024-02-16T03:58:48;5.03;;;3.05;;
1106;SDS011;540;49.448;8.612;2024-02-16T04:01:16;5.25;;;3.13;;
1106;SDS011;540;49.448;8.612;2024-02-16T04:03:44;8.15;;;2.95;;
1106;SDS011;540;49.448;8.612;2024-02-16T04:06:13;3.97;;;2.78;;
1106;SDS011;540;49.448;8.612;2024-02-16T04:08:41;6.63;;;3.35;;
1106;SDS011;540;49.448;8.612;2024-02-16T04:11:10;5.03;;;3.28;;
1106;SDS011;540;49.448;8.612;2024-02-16T04:13:39;5.78;;;3.03;;
1106;SDS011;540;49.448;8.612;2024-02-16T04:16:07;4.45;;;2.50;;
1106;SDS011;540;49.448;8.612;2024-02-16T04:18:35;6.97;;;3.22;;
1106;SDS011;540;49.448;8.612;2024-02-16T04:21:03;9.48;;;3.30;;
1106;SDS011;540;49.448;8.612;2024-02-16T04:23:32;8.40;;;3.30;;
1106;SDS011;540;49.448;8.612;2024-02-16T04:26:00;5.47;;;2.80;;
1106;SDS011;540;49.448;8.612;2024-02-16T04:28:28;3.33;;;2.67;;
1106;SDS011;540;49.448;8.612;2024-02-16T04:30:56;4.07;;;2.72;;
1106;SDS011;540;49.448;8.612;2024-02-16T04:33:24;4.28;;;2.83;;
1106;SDS011;540;49.448;8.612;2024-02-16T04:35:52;3.83;;;3.00;;
1106;SDS011;540;49.448;8.612;2024-02-16T04:38:20;4.10;;;2.80;;
1106;SDS011;540;49.448;8.612;2024-02-16T04:40:49;3.40;;;2.53;;
1106;SDS011;540;49.448;8.612;2024-02-16T04:43:17;5.28;;;2.80;;
1106;SDS011;540;49.448;8.612;2024-02-16T04:45:45;3.92;;;2.40;;
1106;SDS011;540;49.448;8.612;2024-02-16T04:48:13;3.30;;;2.45;;
1106;SDS011;540;49.448;8.612;2024-02-16T04:50:41;5.28;;;2.83;;
1106;SDS011;540;49.448;8.612;2024-02-16T04:53:09;4.07;;;2.75;;
1106;SDS011;540;49.448;8.612;2024-02-16T04:55:36;4.80;;;3.10;;
1106;SDS011;540;49.448;8.612;2024-02-16T04:58:06;4.53;;;2.72;;
1106;SDS011;540;49.448;8.612;2024-02-16T05:00:36;4.03;;;2.78;;
1106;SDS011;540;49.448;8.612;2024-02-16T05:03:04;4.72;;;3.45;;
1106;SDS011;540;49.448;8.612;2024-02-16T05:05:32;5.90;;;3.50;;
1106;SDS011;540;49.448;8.612;2024-02-16T05:08:00;6.72;;;3.28;;
1106;SDS011;540;49.448;8.612;2024-02-16T05:10:28;3.80;;;2.75;;
1106;SDS011;540;49.448;8.612;2024-02-16T05:12:56;5.82;;;2.72;;
1106;SDS011;540;49.448;8.612;2024-02-16T05:15:27;6.15;;;2.63;;
1106;SDS011;540;49.448;8.612;2024-02-16T05:17:55;4.30;;;2.97;;
1106;SDS011;540;49.448;8.612;2024-02-16T05:20:24;4.30;;;2.85;;
1106;SDS011;540;49.448;8.612;2024-02-16T05:22:52;5.55;;;2.70;;
1106;SDS011;540;49.448;8.612;2024-02-16T05:25:20;3.85;;;2.78;;
1106;SDS011;540;49.448;8.612;2024-02-16T05:27:48;6.75;;;3.33;;
1106;SDS011;540;49.448;8.612;2024-02-16T05:30:16;6.07;;;2.70;;
1106;SDS011;540;49.448;8.612;2024-02-16T05:32:45;4.68;;;2.95;;
1106;SDS011;540;49.448;8.612;2024-02-16T05:35:14;4.90;;;3.00;;
1106;SDS011;540;49.448;8.612;2024-02-16T05:37:43;7.93;;;3.20;;
1106;SDS011;540;49.448;8.612;2024-02-16T05:40:14;4.55;;;2.95;;
1106;SDS011;540;49.448;8.612;2024-02-16T05:42:50;6.00;;;2.75;;
1106;SDS011;540;49.448;8.612;2024-02-16T05:45:19;5.47;;;3.05;;
1106;SDS011;540;49.448;8.612;2024-02-16T05:47:49;5.45;;;3.47;;
1106;SDS011;540;49.448;8.612;2024-02-16T05:50:19;6.93;;;3.35;;
1106;SDS011;540;49.448;8.612;2024-02-16T05:52:48;6.93;;;3.10;;
1106;SDS011;540;49.448;8.612;2024-02-16T05:55:17;7.13;;;3.13;;
1106;SDS011;540;49.448;8.612;2024-02-16T05:57:46;3.78;;;2.95;;
1106;SDS011;540;49.448;8.612;2024-02-16T06:00:14;5.05;;;3.15;;
1106;SDS011;540;49.448;8.612;2024-02-16T06:02:42;8.52;;;3.47;;
1106;SDS011;540;49.448;8.612;2024-02-16T06:05:12;6.25;;;3.20;;
1106;SDS011;540;49.448;8.612;2024-02-16T06:07:40;5.45;;;2.75;;
1106;SDS011;540;49.448;8.612;2024-02-16T06:10:08;5.35;;;3.00;;
1106;SDS011;540;49.448;8.612;2024-02-16T06:12:38;7.03;;;3.10;;
1106;SDS011;540;49.448;8.612;2024-02-16T06:15:06;6.95;;;3.65;;
1106;SDS011;540;49.448;8.612;2024-02-16T06:17:35;5.70;;;3.40;;
1106;SDS011;540;49.448;8.612;2024-02-16T06:20:04;9.23;;;3.50;;
1106;SDS011;540;49.448;8.612;2024-02-16T06:22:36;7.65;;;3.60;;
1106;SDS011;540;49.448;8.612;2024-02-16T06:25:05;6.43;;;3.08;;
1106;SDS011;540;49.448;8.612;2024-02-16T06:27:33;6.25;;;3.15;;
1106;SDS011;540;49.448;8.612;2024-02-16T06:30:01;9.23;;;3.55;;
1106;SDS011;540;49.448;8.612;2024-02-16T06:32:31;6.70;;;3.42;;
1106;SDS011;540;49.448;8.612;2024-02-16T06:34:59;6.68;;;3.72;;
1106;SDS011;540;49.448;8.612;2024-02-16T06:37:28;6.30;;;3.63;;
1106;SDS011;540;49.448;8.612;2024-02-16T06:39:59;9.25;;;4.32;;
1106;SDS011;540;49.448;8.612;2024-02-16T06:42:28;10.02;;;4.68;;
1106;SDS011;540;49.448;8.612;2024-02-16T06:44:57;12.18;;;3.95;;
1106;SDS011;540;49.448;8.612;2024-02-16T06:47:25;4.45;;;3.47;;
1106;SDS011;540;49.448;8.612;2024-02-16T06:49:53;6.43;;;4.07;;
1106;SDS011;540;49.448;8.612;2024-02-16T06:52:21;7.80;;;5.43;;
1106;SDS011;540;49.448;8.612;2024-02-16T06:54:49;9.88;;;4.70;;
1106;SDS011;540;49.448;8.612;2024-02-16T06:57:19;6.90;;;4.28;;
1106;SDS011;540;49.448;8.612;2024-02-16T06:59:47;7.43;;;3.90;;
1106;SDS011;540;49.448;8.612;2024-02-16T07:02:15;7.68;;;4.57;;
1106;SDS011;540;49.448;8.612;2024-02-16T07:04:44;7.22;;;4.18;;
1106;SDS011;540;49.448;8.612;2024-02-16T07:07:12;5.93;;;3.95;;
1106;SDS011;540;49.448;8.612;2024-02-16T07:09:40;10.13;;;7.15;;
1106;SDS011;540;49.448;8.612;2024-02-16T07:12:08;7.43;;;5.07;;
1106;SDS011;540;49.448;8.612;2024-02-16T07:14:40;8.80;;;4.50;;
1106;SDS011;540;49.448;8.612;2024-02-16T07:17:08;7.43;;;3.80;;
1106;SDS011;540;49.448;8.612;2024-02-16T07:19:36;4.90;;;3.47;;
1106;SDS011;540;49.448;8.612;2024-02-16T07:22:04;6.80;;;4.38;;
1106;SDS011;540;49.448;8.612;2024-02-16T07:24:33;7.22;;;4.10;;
1106;SDS011;540;49.448;8.612;2024-02-16T07:27:01;7.00;;;3.88;;
1106;SDS011;540;49.448;8.612;2024-02-16T07:29:29;6.50;;;4.40;;
1106;SDS011;540;49.448;8.612;2024-02-16T07:31:59;8.95;;;3.78;;
1106;SDS011;540;49.448;8.612;2024-02-16T07:34:27;8.30;;;4.05;;
1106;SDS011;540;49.448;8.612;2024-02-16T07:36:55;3.92;;;3.33;;
1106;SDS011;540;49.448;8.612;2024-02-16T07:39:23;7.20;;;3.88;;
1106;SDS011;540;49.448;8.612;2024-02-16T07:41:51;6.90;;;3.60;;
1106;SDS011;540;49.448;8.612;2024-02-16T07:44:19;6.28;;;3.65;;
1106;SDS011;540;49.448;8.612;2024-02-16T07:46:47;7.05;;;4.07;;
1106;SDS011;540;49.448;8.612;2024-02-16T07:49:18;5.95;;;3.97;;
1106;SDS011;540;49.448;8.612;2024-02-16T07:51:46;9.77;;;3.97;;
1106;SDS011;540;49.448;8.612;2024-02-16T07:54:14;9.40;;;4.85;;
1106;SDS011;540;49.448;8.612;2024-02-16T07:56:43;10.00;;;4.38;;
1106;SDS011;540;49.448;8.612;2024-02-16T07:59:10;7.30;;;4.22;;
1106;SDS011;540;49.448;8.612;2024-02-16T08:01:38;7.50;;;4.40;;
1106;SDS011;540;49.448;8.612;2024-02-16T08:04:06;6.10;;;4.35;;
1106;SDS011;540;49.448;8.612;2024-02-16T08:06:36;7.70;;;3.50;;
1106;SDS011;540;49.448;8.612;2024-02-16T08:09:04;9.27;;;4.07;;
1106;SDS011;540;49.448;8.612;2024-02-16T08:11:32;6.03;;;3.83;;
1106;SDS011;540;49.448;8.612;2024-02-16T08:14:00;5.55;;;3.92;;
1106;SDS011;540;49.448;8.612;2024-02-16T08:16:29;5.53;;;3.80;;
1106;SDS011;540;49.448;8.612;2024-02-16T08:18:57;7.57;;;4.10;;
1106;SDS011;540;49.448;8.612;2024-02-16T08:21:25;6.60;;;3.90;;
1106;SDS011;540;49.448;8.612;2024-02-16T08:23:54;4.97;;;3.63;;
1106;SDS011;540;49.448;8.612;2024-02-16T08:26:22;6.40;;;3.97;;
1106;SDS011;540;49.448;8.612;2024-02-16T08:28:50;6.32;;;3.80;;
1106;SDS011;540;49.448;8.612;2024-02-16T08:31:18;7.72;;;3.97;;
1106;SDS011;540;49.448;8.612;2024-02-16T08:33:46;6.32;;;3.78;;
1106;SDS011;540;49.448;8.612;2024-02-16T08:36:14;6.18;;;4.05;;
1106;SDS011;540;49.448;8.612;2024-02-16T08:38:42;7.50;;;3.63;;
1106;SDS011;540;49.448;8.612;2024-02-16T08:41:11;9.13;;;3.58;;
1106;SDS011;540;49.448;8.612;2024-02-16T08:43:39;5.70;;;4.00;;
1106;SDS011;540;49.448;8.612;2024-02-16T08:46:07;6.35;;;3.90;;
1106;SDS011;540;49.448;8.612;2024-02-16T08:48:36;6.35;;;4.03;;
1106;SDS011;540;49.448;8.612;2024-02-16T08:51:04;8.27;;;4.43;;
1106;SDS011;540;49.448;8.612;2024-02-16T08:53:32;6.10;;;4.53;;
1106;SDS011;540;49.448;8.612;2024-02-16T08:56:00;5.30;;;3.85;;
1106;SDS011;540;49.448;8.612;2024-02-16T08:58:30;7.15;;;4.15;;
1106;SDS011;540;49.448;8.612;2024-02-16T09:00:58;6.15;;;4.18;;
1106;SDS011;540;49.448;8.612;2024-02-16T09:03:27;6.47;;;4.05;;
1106;SDS011;540;49.448;8.612;2024-02-16T09:06:00;7.45;;;4.20;;
1106;SDS011;540;49.448;8.612;2024-02-16T09:08:29;7.32;;;4.40;;
1106;SDS011;540;49.448;8.612;2024-02-16T09:11:00;8.77;;;4.32;;
1106;SDS011;540;49.448;8.612;2024-02-16T09:13:33;8.35;;;4.13;;
1106;SDS011;540;49.448;8.612;2024-02-16T09:16:07;7.80;;;4.30;;
1106;SDS011;540;49.448;8.612;2024-02-16T09:18:36;7.97;;;3.88;;
1106;SDS011;540;49.448;8.612;2024-02-16T09:21:05;8.20;;;3.95;;
1106;SDS011;540;49.448;8.612;2024-02-16T09:23:35;7.70;;;4.45;;
1106;SDS011;540;49.448;8.612;2024-02-16T09:26:05;7.35;;;4.07;;
1106;SDS011;540;49.448;8.612;2024-02-16T09:28:40;7.88;;;4.03;;
1106;SDS011;540;49.448;8.612;2024-02-16T09:31:09;8.02;;;3.90;;
1106;SDS011;540;49.448;8.612;2024-02-16T09:33:42;8.95;;;4.15;;
1106;SDS011;540;49.448;8.612;2024-02-16T09:40:04;6.15;;;4.15;;
1106;SDS011;540;49.448;8.612;2024-02-16T09:42:34;8.13;;;4.07;;
1106;SDS011;540;49.448;8.612;2024-02-16T09:45:07;5.38;;;4.10;;
1106;SDS011;540;49.448;8.612;2024-02-16T09:47:38;6.60;;;3.45;;
1106;SDS011;540;49.448;8.612;2024-02-16T09:50:11;5.80;;;3.88;;
1106;SDS011;540;49.448;8.612;2024-02-16T09:52:39;6.13;;;3.90;;
1106;SDS011;540;49.448;8.612;2024-02-16T09:55:10;11.23;;;4.10;;
1106;SDS011;540;49.448;8.612;2024-02-16T09:57:40;5.03;;;3.25;;
1106;SDS011;540;49.448;8.612;2024-02-16T10:00:11;6.85;;;3.30;;
1106;SDS011;540;49.448;8.612;2024-02-16T10:02:40;6.32;;;3.92;;
1106;SDS011;540;49.448;8.612;2024-02-16T10:05:10;6.45;;;3.63;;
1106;SDS011;540;49.448;8.612;2024-02-16T10:07:41;6.53;;;3.50;;
1106;SDS011;540;49.448;8.612;2024-02-16T10:10:20;6.47;;;4.13;;
1106;SDS011;540;49.448;8.612;2024-02-16T10:12:49;4.85;;;3.20;;
1106;SDS011;540;49.448;8.612;2024-02-16T10:15:22;9.98;;;3.60;;
1106;SDS011;540;49.448;8.612;2024-02-16T10:17:57;9.63;;;3.58;;
1106;SDS011;540;49.448;8.612;2024-02-16T10:20:25;5.00;;;3.22;;
1106;SDS011;540;49.448;8.612;2024-02-16T10:23:03;7.40;;;3.60;;
1106;SDS011;540;49.448;8.612;2024-02-16T10:25:32;9.73;;;3.72;;
1106;SDS011;540;49.448;8.612;2024-02-16T10:28:02;4.53;;;2.95;;
1106;SDS011;540;49.448;8.612;2024-02-16T10:30:35;7.72;;;3.10;;
1106;SDS011;540;49.448;8.612;2024-02-16T10:33:05;5.70;;;3.65;;
1106;SDS011;540;49.448;8.612;2024-02-16T10:35:34;6.93;;;3.28;;
1106;SDS011;540;49.448;8.612;2024-02-16T10:38:03;5.40;;;2.47;;
1106;SDS011;540;49.448;8.612;2024-02-16T10:40:32;5.93;;;3.33;;
1106;SDS011;540;49.448;8.612;2024-02-16T10:43:04;4.75;;;2.70;;
1106;SDS011;540;49.448;8.612;2024-02-16T10:45:35;5.78;;;2.78;;
1106;SDS011;540;49.448;8.612;2024-02-16T10:48:05;14.38;;;4.35;;
1106;SDS011;540;49.448;8.612;2024-02-16T10:50:34;6.97;;;3.60;;
1106;SDS011;540;49.448;8.612;2024-02-16T10:53:04;6.78;;;2.67;;
1106;SDS011;540;49.448;8.612;2024-02-16T10:55:37;13.50;;;2.75;;
1106;SDS011;540;49.448;8.612;2024-02-16T10:58:06;5.38;;;2.55;;
1106;SDS011;540;49.448;8.612;2024-02-16T11:00:37;5.18;;;3.17;;
1106;SDS011;540;49.448;8.612;2024-02-16T11:03:16;3.53;;;2.55;;
1106;SDS011;540;49.448;8.612;2024-02-16T11:05:45;4.03;;;2.65;;
1106;SDS011;540;49.448;8.612;2024-02-16T11:08:13;9.52;;;2.72;;
1106;SDS011;540;49.448;8.612;2024-02-16T11:10:53;5.95;;;3.25;;
1106;SDS011;540;49.448;8.612;2024-02-16T11:13:21;5.22;;;2.92;;
1106;SDS011;540;49.448;8.612;2024-02-16T11:15:58;9.30;;;3.20;;
1106;SDS011;540;49.448;8.612;2024-02-16T11:18:27;9.25;;;2.97;;
1106;SDS011;540;49.448;8.612;2024-02-16T11:20:59;6.00;;;2.70;;
1106;SDS011;540;49.448;8.612;2024-02-16T11:23:28;7.85;;;3.15;;
1106;SDS011;540;49.448;8.612;2024-02-16T11:25:59;5.75;;;2.92;;
1106;SDS011;540;49.448;8.612;2024-02-16T11:28:29;4.45;;;2.70;;
1106;SDS011;540;49.448;8.612;2024-02-16T11:31:00;6.40;;;2.90;;
1106;SDS011;540;49.448;8.612;2024-02-16T11:33:29;5.93;;;2.30;;
1106;SDS011;540;49.448;8.612;2024-02-16T11:35:58;5.80;;;2.67;;
1106;SDS011;540;49.448;8.612;2024-02-16T11:38:27;4.60;;;2.38;;
1106;SDS011;540;49.448;8.612;2024-02-16T11:40:58;4.15;;;2.65;;
1106;SDS011;540;49.448;8.612;2024-02-16T11:43:26;6.97;;;3.15;;
1106;SDS011;540;49.448;8.612;2024-02-16T11:45:54;4.50;;;2.50;;
1106;SDS011;540;49.448;8.612;2024-02-16T11:48:24;6.60;;;2.97;;
1106;SDS011;540;49.448;8.612;2024-02-16T11:50:58;4.72;;;2.53;;
1106;SDS011;540;49.448;8.612;2024-02-16T11:53:28;6.57;;;2.90;;
1106;SDS011;540;49.448;8.612;2024-02-16T11:55:56;5.93;;;2.97;;
1106;SDS011;540;49.448;8.612;2024-02-16T11:58:25;5.28;;;2.70;;
1106;SDS011;540;49.448;8.612;2024-02-16T12:00:52;7.07;;;2.60;;
1106;SDS011;540;49.448;8.612;2024-02-16T12:03:20;5.97;;;2.40;;
1106;SDS011;540;49.448;8.612;2024-02-16T12:05:51;8.35;;;3.40;;
1106;SDS011;540;49.448;8.612;2024-02-16T12:08:19;4.38;;;2.92;;
1106;SDS011;540;49.448;8.612;2024-02-16T12:10:48;10.23;;;3.55;;
1106;SDS011;540;49.448;8.612;2024-02-16T12:13:19;3.88;;;2.20;;
1106;SDS011;540;49.448;8.612;2024-02-16T12:15:48;6.00;;;2.88;;
1106;SDS011;540;49.448;8.612;2024-02-16T12:18:20;4.70;;;2.70;;
1106;SDS011;540;49.448;8.612;2024-02-16T12:21:01;4.18;;;2.80;;
1106;SDS011;540;49.448;8.612;2024-02-16T12:23:31;3.83;;;2.50;;
1106;SDS011;540;49.448;8.612;2024-02-16T12:26:00;8.82;;;2.75;;
1106;SDS011;540;49.448;8.612;2024-02-16T12:28:28;4.95;;;2.63;;
1106;SDS011;540;49.448;8.612;2024-02-16T12:30:58;4.82;;;2.88;;
1106;SDS011;540;49.448;8.612;2024-02-16T12:33:29;5.80;;;2.83;;
1106;SDS011;540;49.448;8.612;2024-02-16T12:35:58;6.72;;;2.95;;
1106;SDS011;540;49.448;8.612;2024-02-16T12:38:27;4.90;;;2.67;;
1106;SDS011;540;49.448;8.612;2024-02-16T12:40:55;6.28;;;2.58;;
1106;SDS011;540;49.448;8.612;2024-02-16T12:43:23;5.22;;;2.50;;
1106;SDS011;540;49.448;8.612;2024-02-16T12:45:51;7.70;;;2.97;;
1106;SDS011;540;49.448;8.612;2024-02-16T12:48:19;5.45;;;2.80;;
1106;SDS011;540;49.448;8.612;2024-02-16T12:50:47;5.97;;;2.83;;
1106;SDS011;540;49.448;8.612;2024-02-16T12:53:15;4.55;;;2.80;;
1106;SDS011;540;49.448;8.612;2024-02-16T12:55:44;6.82;;;2.80;;
1106;SDS011;540;49.448;8.612;2024-02-16T12:58:12;4.65;;;2.55;;
1106;SDS011;540;49.448;8.612;2024-02-16T13:00:40;7.78;;;2.83;;
1106;SDS011;540;49.448;8.612;2024-02-16T13:03:08;5.85;;;2.92;;
1106;SDS011;540;49.448;8.612;2024-02-16T13:05:36;4.38;;;1.98;;
1106;SDS011;540;49.448;8.612;2024-02-16T13:08:05;4.55;;;2.55;;
1106;SDS011;540;49.448;8.612;2024-02-16T13:10:34;4.65;;;2.53;;
1106;SDS011;540;49.448;8.612;2024-02-16T13:13:03;7.30;;;3.28;;
1106;SDS011;540;49.448;8.612;2024-02-16T13:15:32;6.35;;;2.67;;
1106;SDS011;540;49.448;8.612;2024-02-16T13:18:00;5.40;;;2.78;;
1106;SDS011;540;49.448;8.612;2024-02-16T13:20:29;4.25;;;2.30;;
1106;SDS011;540;49.448;8.612;2024-02-16T13:22:57;4.85;;;2.78;;
1106;SDS011;540;49.448;8.612;2024-02-16T13:25:26;9.88;;;3.20;;
1106;SDS011;540;49.448;8.612;2024-02-16T13:27:54;6.45;;;2.58;;
1106;SDS011;540;49.448;8.612;2024-02-16T13:30:23;7.68;;;1.92;;
1106;SDS011;540;49.448;8.612;2024-02-16T13:32:51;8.05;;;1.95;;
1106;SDS011;540;49.448;8.612;2024-02-16T13:35:19;5.60;;;2.42;;
1106;SDS011;540;49.448;8.612;2024-02-16T13:37:47;5.38;;;2.22;;
1106;SDS011;540;49.448;8.612;2024-02-16T13:40:15;5.35;;;2.20;;
1106;SDS011;540;49.448;8.612;2024-02-16T13:42:44;9.70;;;2.70;;
1106;SDS011;540;49.448;8.612;2024-02-16T13:45:12;4.15;;;2.00;;
1106;SDS011;540;49.448;8.612;2024-02-16T13:47:42;6.07;;;2.10;;
1106;SDS011;540;49.448;8.612;2024-02-16T13:50:10;5.22;;;2.65;;
1106;SDS011;540;49.448;8.612;2024-02-16T13:52:38;4.20;;;1.90;;
1106;SDS011;540;49.448;8.612;2024-02-16T13:55:07;4.63;;;2.00;;
1106;SDS011;540;49.448;8.612;2024-02-16T13:57:35;6.18;;;2.10;;
1106;SDS011;540;49.448;8.612;2024-02-16T14:00:07;5.32;;;2.35;;
1106;SDS011;540;49.448;8.612;2024-02-16T14:02:35;5.55;;;2.20;;
1106;SDS011;540;49.448;8.612;2024-02-16T14:05:05;8.73;;;2.40;;
1106;SDS011;540;49.448;8.612;2024-02-16T14:07:33;4.65;;;2.03;;
1106;SDS011;540;49.448;8.612;2024-02-16T14:10:12;7.10;;;2.45;;
1106;SDS011;540;49.448;8.612;2024-02-16T14:12:40;5.75;;;2.25;;
1106;SDS011;540;49.448;8.612;2024-02-16T14:15:08;4.57;;;2.05;;
1106;SDS011;540;49.448;8.612;2024-02-16T14:17:42;5.60;;;1.77;;
1106;SDS011;540;49.448;8.612;2024-02-16T14:20:11;3.17;;;1.50;;
1106;SDS011;540;49.448;8.612;2024-02-16T14:22:40;5.10;;;2.10;;
1106;SDS011;540;49.448;8.612;2024-02-16T14:25:10;4.75;;;2.03;;
1106;SDS011;540;49.448;8.612;2024-02-16T14:27:39;4.97;;;1.52;;
1106;SDS011;540;49.448;8.612;2024-02-16T14:30:09;5.63;;;1.77;;
1106;SDS011;540;49.448;8.612;2024-02-16T14:32:37;7.43;;;2.28;;
1106;SDS011;540;49.448;8.612;2024-02-16T14:35:05;4.60;;;2.10;;
1106;SDS011;540;49.448;8.612;2024-02-16T14:37:35;6.22;;;2.10;;
1106;SDS011;540;49.448;8.612;2024-02-16T14:40:05;6.95;;;2.20;;
1106;SDS011;540;49.448;8.612;2024-02-16T14:42:36;5.78;;;1.95;;
1106;SDS011;540;49.448;8.612;2024-02-16T14:45:06;7.32;;;2.85;;
1106;SDS011;540;49.448;8.612;2024-02-16T14:47:36;4.32;;;2.55;;
1106;SDS011;540;49.448;8.612;2024-02-16T14:50:04;6.72;;;2.00;;
1106;SDS011;540;49.448;8.612;2024-02-16T14:52:35;4.55;;;1.92;;
1106;SDS011;540;49.448;8.612;2024-02-16T14:55:03;4.18;;;2.05;;
1106;SDS011;540;49.448;8.612;2024-02-16T14:57:36;5.65;;;2.15;;
1106;SDS011;540;49.448;8.612;2024-02-16T15:00:05;6.57;;;1.95;;
1106;SDS011;540;49.448;8.612;2024-02-16T15:02:34;6.15;;;2.22;;
1106;SDS011;540;49.448;8.612;2024-02-16T15:05:03;7.22;;;2.47;;
1106;SDS011;540;49.448;8.612;2024-02-16T15:07:31;4.00;;;2.20;;
1106;SDS011;540;49.448;8.612;2024-02-16T15:10:00;6.75;;;2.88;;
1106;SDS011;540;49.448;8.612;2024-02-16T15:12:29;5.00;;;2.28;;
1106;SDS011;540;49.448;8.612;2024-02-16T15:14:58;6.00;;;2.08;;
1106;SDS011;540;49.448;8.612;2024-02-16T15:17:26;4.55;;;2.45;;
1106;SDS011;540;49.448;8.612;2024-02-16T15:19:54;6.55;;;4.03;;
1106;SDS011;540;49.448;8.612;2024-02-16T15:22:22;9.00;;;3.30;;
1106;SDS011;540;49.448;8.612;2024-02-16T15:24:57;7.43;;;3.67;;
1106;SDS011;540;49.448;8.612;2024-02-16T15:27:27;6.45;;;2.83;;
1106;SDS011;540;49.448;8.612;2024-02-16T15:29:55;6.60;;;4.05;;
1106;SDS011;540;49.448;8.612;2024-02-16T15:32:22;8.25;;;4.13;;
1106;SDS011;540;49.448;8.612;2024-02-16T15:34:50;4.35;;;2.65;;
1106;SDS011;540;49.448;8.612;2024-02-16T15:37:20;6.30;;;2.80;;
1106;SDS011;540;49.448;8.612;2024-02-16T15:39:48;5.65;;;3.58;;
1106;SDS011;540;49.448;8.612;2024-02-16T15:42:18;7.32;;;4.43;;
1106;SDS011;540;49.448;8.612;2024-02-16T15:44:47;7.05;;;4.28;;